Time;durP1;ratioP1;P1;durP2;ratioP2;P2;SDS_P1;SDS_P2;PMS_P1;PMS_P2;Temp;Humidity;BMP_temperature;BMP_pressure;BME280_temperature;BME280_humidity;BME280_pressure;Samples;Min_cycle;Max_cycle;Signal;HPM_P1;HPM_P2
2024/01/11 00:01:27;;;;;;;20.80;9.57;;;;;;;-5.80;100.00;101781.75;5607640;31;35717;-69
2024/01/11 00:04:31;;;;;;;44.60;11.95;;;;;;;-5.86;100.00;101770.72;5607563;31;34273;-69
2024/01/11 00:07:34;;;;;;;76.37;50.60;;;;;;;-5.86;100.00;101769.00;5607519;31;34911;-69
2024/01/11 00:10:37;;;;;;;30.25;10.88;;;;;;;-5.84;100.00;101768.94;5607816;31;34974;-71
2024/01/11 00:13:40;;;;;;;87.25;52.20;;;;;;;-5.84;100.00;101762.03;5607000;31;34253;-70
2024/01/11 00:16:43;;;;;;;26.40;11.35;;;;;;;-5.86;100.00;101766.41;5607799;31;34413;-70
2024/01/11 00:19:48;;;;;;;33.75;13.45;;;;;;;-5.85;100.00;101764.63;5609335;31;34328;-69
2024/01/11 00:22:51;;;;;;;28.30;10.65;;;;;;;-5.94;100.00;101768.31;5609469;31;34250;-69
2024/01/11 00:25:54;;;;;;;32.22;12.32;;;;;;;-5.95;100.00;101763.16;5609759;31;34639;-70
2024/01/11 00:28:57;;;;;;;32.05;14.25;;;;;;;-6.00;100.00;101763.25;5609716;31;35052;-69
2024/01/11 00:32:00;;;;;;;80.70;51.53;;;;;;;-6.00;100.00;101755.50;5610215;31;34519;-69
2024/01/11 00:35:03;;;;;;;26.62;11.55;;;;;;;-5.95;100.00;101761.41;5609980;31;34424;-70
2024/01/11 00:38:06;;;;;;;30.42;12.02;;;;;;;-5.96;100.00;101753.72;5609727;31;34428;-70
2024/01/11 00:41:09;;;;;;;30.15;12.93;;;;;;;-6.00;100.00;101763.25;5609834;31;34360;-70
2024/01/11 00:44:12;;;;;;;84.93;52.53;;;;;;;-6.02;100.00;101752.09;5608930;31;35414;-70
2024/01/11 00:47:15;;;;;;;91.50;52.72;;;;;;;-6.00;100.00;101752.09;5609704;31;34353;-69
2024/01/11 00:50:18;;;;;;;34.33;12.23;;;;;;;-5.99;100.00;101743.44;5608949;31;34914;-69
2024/01/11 00:53:21;;;;;;;31.05;12.02;;;;;;;-6.01;100.00;101745.22;5609579;31;34309;-70
2024/01/11 00:56:24;;;;;;;89.80;52.60;;;;;;;-6.00;100.00;101741.75;5609598;31;34975;-70
2024/01/11 00:59:27;;;;;;;21.62;10.68;;;;;;;-5.99;100.00;101746.88;5609570;31;34478;-70
2024/01/11 01:02:30;;;;;;;33.47;11.88;;;;;;;-6.01;100.00;101735.72;5609458;31;35100;-70
2024/01/11 01:05:33;;;;;;;26.55;12.40;;;;;;;-6.06;100.00;101728.94;5610044;31;34336;-69
2024/01/11 01:08:36;;;;;;;85.53;53.15;;;;;;;-6.09;100.00;101723.81;5609491;31;34454;-71
2024/01/11 01:11:39;;;;;;;36.38;10.75;;;;;;;-6.10;100.00;101724.72;5609772;31;34186;-70
2024/01/11 01:14:42;;;;;;;42.80;12.25;;;;;;;-6.17;100.00;101722.25;5609296;31;35108;-70
2024/01/11 01:17:45;;;;;;;32.38;13.38;;;;;;;-6.17;100.00;101722.25;5608660;31;34338;-70
2024/01/11 01:20:48;;;;;;;25.42;12.80;;;;;;;-6.20;100.00;101714.56;5609150;31;34347;-70
2024/01/11 01:23:51;;;;;;;76.82;49.83;;;;;;;-6.24;100.00;101714.63;5609641;31;35067;-69
2024/01/11 01:26:53;;;;;;;19.00;9.45;;;;;;;-6.23;100.00;101712.03;5609304;31;34367;-70
2024/01/11 01:29:57;;;;;;;22.48;10.48;;;;;;;-6.25;100.00;101708.66;5608698;31;35040;-69
2024/01/11 01:33:00;;;;;;;18.90;9.13;;;;;;;-6.20;100.00;101703.41;5609300;31;34929;-70
2024/01/11 01:36:03;;;;;;;16.73;9.25;;;;;;;-6.09;100.00;101703.16;5609173;31;34648;-71
2024/01/11 01:39:06;;;;;;;26.70;9.82;;;;;;;-6.11;100.00;101700.63;5609198;31;34434;-70
2024/01/11 01:42:09;;;;;;;22.65;8.93;;;;;;;-6.15;100.00;101702.41;5609230;31;34379;-71
2024/01/11 01:45:12;;;;;;;24.37;9.40;;;;;;;-6.16;100.00;101695.56;5609252;31;34260;-70
2024/01/11 01:48:15;;;;;;;57.05;38.90;;;;;;;-6.19;100.00;101692.16;5609127;31;35290;-70
2024/01/11 01:51:18;;;;;;;20.67;9.77;;;;;;;-6.20;100.00;101693.06;5609018;31;34381;-70
2024/01/11 01:54:23;;;;;;;22.70;10.32;;;;;;;-6.17;100.00;101683.50;5608978;31;34510;-69
2024/01/11 01:57:26;;;;;;;62.62;41.10;;;;;;;-6.20;100.00;101673.25;5609255;31;34421;-70
2024/01/11 02:00:29;;;;;;;17.73;7.28;;;;;;;-6.18;100.00;101674.06;5608221;31;34339;-70
2024/01/11 02:03:35;;;;;;;17.58;9.15;;;;;;;-6.22;100.00;101677.59;5608884;31;34284;-70
2024/01/11 02:06:38;;;;;;;20.10;9.90;;;;;;;-6.23;100.00;101668.13;5608936;31;34955;-71
2024/01/11 02:09:42;;;;;;;55.75;37.00;;;;;;;-6.24;100.00;101665.56;5608854;31;34346;-71
2024/01/11 02:12:46;;;;;;;27.60;6.45;;;;;;;-6.22;100.00;101658.66;5608872;31;34340;-69
2024/01/11 02:15:49;;;;;;;13.80;7.00;;;;;;;-6.13;100.00;101660.19;5608855;31;35094;-70
2024/01/11 02:18:52;;;;;;;21.60;8.23;;;;;;;-6.06;100.00;101659.19;5603424;31;34278;-70
2024/01/11 02:22:00;;;;;;;15.95;7.62;;;;;;;-6.06;100.00;101652.31;5589150;31;33796;-70
2024/01/11 02:25:03;;;;;;;19.60;7.90;;;;;;;-6.13;100.00;101647.28;5589201;31;34659;-71
2024/01/11 02:28:08;;;;;;;14.70;8.20;;;;;;;-6.12;100.00;101649.00;5589344;31;34657;-70
2024/01/11 02:31:13;;;;;;;24.00;9.43;;;;;;;-6.08;100.00;101642.88;5588933;31;35098;-70
2024/01/11 02:34:16;;;;;;;17.40;7.37;;;;;;;-6.11;100.00;101641.22;5589095;31;34364;-71
2024/01/11 02:37:19;;;;;;;26.50;9.75;;;;;;;-6.00;100.00;101626.31;5589113;31;34401;-70
2024/01/11 02:40:22;;;;;;;22.83;7.80;;;;;;;-6.02;100.00;101630.69;5575618;31;35365;-70
2024/01/11 02:43:26;;;;;;;52.62;34.50;;;;;;;-6.10;100.00;101630.00;5574133;31;34501;-70
2024/01/11 02:46:29;;;;;;;16.92;9.10;;;;;;;-6.19;100.00;101628.44;5588971;31;35146;-70
2024/01/11 02:49:32;;;;;;;11.48;6.65;;;;;;;-6.25;100.00;101617.41;5589240;31;35034;-70
2024/01/11 02:52:35;;;;;;;19.87;7.28;;;;;;;-6.32;100.00;101615.81;5588904;31;34344;-71
2024/01/11 02:55:38;;;;;;;15.75;8.13;;;;;;;-6.37;100.00;101609.91;5575094;31;35453;-70
2024/01/11 02:58:41;;;;;;;58.58;37.78;;;;;;;-6.40;100.00;101600.50;5589013;31;34365;-71
2024/01/11 03:01:44;;;;;;;16.33;7.53;;;;;;;-6.41;100.00;101600.53;5589075;31;34452;-71
2024/01/11 03:04:47;;;;;;;16.15;9.13;;;;;;;-6.43;100.00;101600.53;5588761;31;34422;-70
2024/01/11 03:07:50;;;;;;;18.92;9.05;;;;;;;-6.42;100.00;101593.66;5588780;31;34395;-69
2024/01/11 03:10:53;;;;;;;18.15;8.57;;;;;;;-6.45;100.00;101589.41;5588757;31;35822;-69
2024/01/11 03:13:56;;;;;;;19.87;8.35;;;;;;;-6.49;100.00;101592.94;5588754;31;34997;-70
2024/01/11 03:16:59;;;;;;;18.33;8.38;;;;;;;-6.50;100.00;101590.38;5589028;31;34371;-70
2024/01/11 03:20:04;;;;;;;20.70;9.25;;;;;;;-6.56;100.00;101577.59;5601325;31;35070;-70
2024/01/11 03:23:07;;;;;;;31.08;11.75;;;;;;;-6.61;100.00;101564.78;5608387;31;34351;-71
2024/01/11 03:26:17;;;;;;;85.60;54.30;;;;;;;-6.61;100.00;101572.53;5608399;31;35033;-70
2024/01/11 03:29:20;;;;;;;;;;;;;;;-6.54;100.00;101570.69;5608533;31;34460;-70
2024/01/11 03:32:23;;;;;;;24.70;12.37;;;;;;;-6.63;100.00;101563.94;5608425;31;34806;-70
2024/01/11 03:35:26;;;;;;;39.40;13.05;;;;;;;-6.70;100.00;101560.66;5608235;31;34237;-69
2024/01/11 03:38:30;;;;;;;43.13;15.07;;;;;;;-6.73;100.00;101559.88;5608686;31;34401;-70
2024/01/11 03:41:33;;;;;;;32.30;14.38;;;;;;;-6.78;100.00;101551.38;5607379;31;34362;-71
2024/01/11 03:44:37;;;;;;;44.42;16.67;;;;;;;-6.78;100.00;101548.81;5607356;31;34433;-70
2024/01/11 03:47:40;;;;;;;26.75;13.80;;;;;;;-6.74;100.00;101548.72;5608070;31;34319;-70
2024/01/11 03:50:43;;;;;;;39.50;14.45;;;;;;;-6.82;100.00;101549.72;5608156;31;34577;-70
2024/01/11 03:53:46;;;;;;;38.22;16.52;;;;;;;-6.85;100.00;101548.06;5606979;31;35877;-70
2024/01/11 03:56:49;;;;;;;30.55;14.30;;;;;;;-6.88;100.00;101537.81;5608158;31;34484;-70
2024/01/11 03:59:52;;;;;;;93.70;59.60;;;;;;;-6.87;100.00;101536.09;5608242;31;34361;-70
2024/01/11 04:02:55;;;;;;;21.62;11.18;;;;;;;-6.88;100.00;101542.13;5608111;31;35148;-71
2024/01/11 04:05:58;;;;;;;24.02;13.45;;;;;;;-6.86;100.00;101545.50;5608211;31;34359;-70
2024/01/11 04:09:01;;;;;;;34.90;16.12;;;;;;;-6.79;100.00;101539.34;5607767;31;34327;-70
2024/01/11 04:12:05;;;;;;;36.97;15.27;;;;;;;-6.88;100.00;101532.66;5607721;31;35099;-70
2024/01/11 04:15:11;;;;;;;38.88;15.77;;;;;;;-6.90;100.00;101539.56;5607573;31;34959;-71
2024/01/11 04:18:14;;;;;;;30.55;13.75;;;;;;;-6.93;100.00;101547.38;5602061;31;152779;-71
2024/01/11 04:21:22;;;;;;;40.65;14.70;;;;;;;-6.93;100.00;101547.38;5606964;31;34360;-71
2024/01/11 04:24:25;;;;;;;40.70;17.33;;;;;;;-6.95;100.00;101549.13;5607652;31;34491;-70
2024/01/11 04:27:28;;;;;;;28.73;14.32;;;;;;;-7.00;100.00;101538.03;5607590;31;34359;-70
2024/01/11 04:30:31;;;;;;;37.63;13.88;;;;;;;-6.99;100.00;101536.31;5607809;31;34228;-71
2024/01/11 04:33:34;;;;;;;107.50;66.15;;;;;;;-6.99;100.00;101544.03;5607462;31;35032;-70
2024/01/11 04:36:38;;;;;;;41.50;13.68;;;;;;;-6.95;100.00;101545.69;5607470;31;34299;-70
2024/01/11 04:39:41;;;;;;;33.67;14.68;;;;;;;-6.96;100.00;101547.41;5607383;31;34424;-70
2024/01/11 04:42:44;;;;;;;35.55;15.80;;;;;;;-6.98;100.00;101538.00;5606362;31;34527;-71
2024/01/11 04:45:47;;;;;;;104.70;67.15;;;;;;;-6.98;100.00;101538.00;5607636;31;34451;-70
2024/01/11 04:48:50;;;;;;;37.25;12.15;;;;;;;-6.97;100.00;101537.97;5607200;31;34367;-71
2024/01/11 04:51:53;;;;;;;34.38;12.77;;;;;;;-6.98;100.00;101538.00;5607178;31;34327;-73
2024/01/11 04:54:56;;;;;;;29.75;13.75;;;;;;;-6.97;100.00;101535.37;5607189;31;34956;-71
2024/01/11 04:58:00;;;;;;;101.68;63.08;;;;;;;-6.89;100.00;101537.84;5607400;31;34342;-71
2024/01/11 05:01:04;;;;;;;29.95;13.25;;;;;;;-6.85;100.00;101535.16;5606980;31;34430;-71
2024/01/11 05:04:10;;;;;;;26.75;11.35;;;;;;;-6.81;100.00;101538.53;5607208;31;34395;-71
2024/01/11 05:07:13;;;;;;;31.60;11.38;;;;;;;-6.84;100.00;101531.72;5609670;31;34270;-72
2024/01/11 05:10:16;;;;;;;99.75;61.80;;;;;;;-6.87;100.00;101526.59;5609582;31;34423;-71
2024/01/11 05:13:19;;;;;;;19.77;9.82;;;;;;;-6.82;100.00;101531.66;5608922;31;35378;-71
2024/01/11 05:16:29;;;;;;;94.60;60.03;;;;;;;-6.85;100.00;101535.16;5595747;31;34360;-71
2024/01/11 05:19:35;;;;;;;24.92;12.05;;;;;;;-6.82;100.00;101531.66;5609288;31;35045;-70
2024/01/11 05:22:37;;;;;;;41.83;14.73;;;;;;;-6.89;100.00;101536.09;5609569;31;35031;-70
2024/01/11 05:25:41;;;;;;;37.63;14.75;;;;;;;-6.83;100.00;101525.69;5609378;31;34955;-70
2024/01/11 05:28:44;;;;;;;34.80;17.15;;;;;;;-6.71;100.00;101522.84;5609458;31;34300;-70
2024/01/11 05:31:47;;;;;;;35.45;16.10;;;;;;;-6.73;100.00;101528.91;5609681;31;34529;-69
2024/01/11 05:34:50;;;;;;;38.65;15.77;;;;;;;-6.75;100.00;101536.69;5609448;31;34418;-70
2024/01/11 05:37:56;;;;;;;35.38;15.40;;;;;;;-6.80;100.00;101541.09;5609639;31;34299;-71
2024/01/11 05:40:59;;;;;;;91.63;57.90;;;;;;;-6.90;100.00;101544.72;5609398;31;33522;-70
2024/01/11 05:44:04;;;;;;;24.70;15.10;;;;;;;-6.93;100.00;101542.22;5609249;31;34300;-70
2024/01/11 05:47:07;;;;;;;29.25;14.23;;;;;;;-6.95;100.00;101530.19;5609430;31;34461;-71
2024/01/11 05:50:11;;;;;;;35.10;15.43;;;;;;;-6.96;100.00;101531.06;5609388;31;34386;-72
2024/01/11 05:53:14;;;;;;;42.08;17.73;;;;;;;-6.96;100.00;101529.34;5609202;31;34529;-71
2024/01/11 05:56:20;;;;;;;41.37;18.17;;;;;;;-6.93;100.00;101537.06;5609254;31;35008;-70
2024/01/11 05:59:22;;;;;;;41.42;17.55;;;;;;;-6.98;100.00;101531.13;5609451;31;34944;-71
2024/01/11 06:02:27;;;;;;;38.67;15.98;;;;;;;-7.00;100.00;101530.28;5609094;31;34396;-71
2024/01/11 06:05:30;;;;;;;36.67;15.77;;;;;;;-6.95;100.00;101536.22;5609614;31;34337;-71
2024/01/11 06:08:33;;;;;;;35.50;15.90;;;;;;;-6.88;100.00;101536.97;5609181;31;34611;-71
2024/01/11 06:11:36;;;;;;;42.30;14.43;;;;;;;-6.79;100.00;101535.03;5607998;31;34267;-71
2024/01/11 06:14:39;;;;;;;105.70;69.43;;;;;;;-6.83;100.00;101524.81;5608683;31;35178;-71
2024/01/11 06:17:42;;;;;;;34.05;13.62;;;;;;;-6.85;100.00;101517.09;5608824;31;34363;-71
2024/01/11 06:20:45;;;;;;;36.22;15.18;;;;;;;-6.83;100.00;101511.91;5608962;31;34231;-71
2024/01/11 06:23:49;;;;;;;24.60;12.32;;;;;;;-6.82;100.00;101516.19;5609219;31;35077;-70
2024/01/11 06:26:52;;;;;;;30.37;10.48;;;;;;;-6.72;100.00;101515.97;5607960;31;34347;-71
2024/01/11 06:29:55;;;;;;;45.30;12.65;;;;;;;-6.63;100.00;101508.03;5608740;31;34247;-71
2024/01/11 06:32:58;;;;;;;29.23;11.35;;;;;;;-6.65;100.00;101514.97;5608247;31;34382;-71
2024/01/11 06:36:02;;;;;;;29.85;14.55;;;;;;;-6.65;100.00;101507.22;5608430;31;34540;-71
2024/01/11 06:39:06;;;;;;;28.40;13.75;;;;;;;-6.54;100.00;101516.50;5608525;31;34221;-71
2024/01/11 06:42:09;;;;;;;40.05;17.42;;;;;;;-6.52;100.00;101507.81;5608651;31;34678;-72
2024/01/11 06:45:11;;;;;;;38.72;15.88;;;;;;;-6.52;100.00;101504.37;5608579;31;35041;-71
2024/01/11 06:48:14;;;;;;;32.38;15.35;;;;;;;-6.57;100.00;101504.47;5608312;31;34316;-71
2024/01/11 06:51:21;;;;;;;29.02;14.57;;;;;;;-6.49;100.00;101502.59;5607654;31;34369;-71
2024/01/11 06:54:25;;;;;;;29.08;14.25;;;;;;;-6.27;100.00;101500.38;5608919;31;34301;-69
2024/01/11 06:57:29;;;;;;;31.05;13.68;;;;;;;-6.19;100.00;101495.88;5596633;31;34432;-69
2024/01/11 07:00:32;;;;;;;61.15;40.03;;;;;;;-6.14;100.00;101499.22;5608027;31;34285;-71
2024/01/11 07:03:36;;;;;;;17.25;6.47;;;;;;;-5.95;100.00;101507.38;5607338;31;34516;-71
2024/01/11 07:06:39;;;;;;;12.90;6.53;;;;;;;-5.57;100.00;101501.28;5607334;31;35074;-70
2024/01/11 07:09:42;;;;;;;16.25;7.62;;;;;;;-5.00;100.00;101501.47;5608198;31;34299;-71
2024/01/11 07:12:47;;;;;;;18.85;7.37;;;;;;;-4.78;100.00;101504.28;5607893;31;34349;-71
2024/01/11 07:15:52;;;;;;;12.30;6.72;;;;;;;-4.59;100.00;101503.72;5608103;31;35083;-72
2024/01/11 07:18:55;;;;;;;21.77;6.97;;;;;;;-4.26;100.00;101501.03;5608158;31;34953;-72
2024/01/11 07:21:58;;;;;;;21.77;8.60;;;;;;;-4.12;100.00;101496.28;5608015;31;35090;-71
2024/01/11 07:25:01;;;;;;;53.75;32.97;;;;;;;-4.04;100.00;101495.13;5607821;31;34439;-70
2024/01/11 07:28:05;;;;;;;13.38;5.82;;;;;;;-3.95;100.00;101491.41;5607356;31;35007;-73
2024/01/11 07:31:10;;;;;;;14.93;7.35;;;;;;;-3.87;100.00;101496.38;5606899;31;34966;-71
2024/01/11 07:34:17;;;;;;;17.05;7.03;;;;;;;-3.84;100.00;101510.06;5608024;31;34616;-71
2024/01/11 07:37:21;;;;;;;55.72;31.83;;;;;;;-3.79;100.00;101504.72;5607636;31;34280;-71
2024/01/11 07:40:25;;;;;;;12.65;6.60;;;;;;;-3.59;100.00;101491.97;5607514;31;35086;-71
2024/01/11 07:43:28;;;;;;;59.22;31.45;;;;;;;-3.47;100.00;101491.53;5607430;31;34456;-71
2024/01/11 07:46:48;;;;;;;57.72;33.30;;;;;;;-3.52;100.00;101490.84;5608000;31;34460;-71
2024/01/11 07:50:01;;;;;;;19.12;6.85;;;;;;;-3.45;100.00;101496.69;5607586;31;34569;-71
2024/01/11 07:53:07;;;;;;;26.77;6.85;;;;;;;-3.34;100.00;101492.81;5607597;31;34278;-72
2024/01/11 07:56:10;;;;;;;49.55;31.87;;;;;;;-3.19;100.00;101501.81;5607754;31;34460;-71
2024/01/11 07:59:14;;;;;;;48.17;31.40;;;;;;;-3.08;100.00;101490.16;5607373;31;35845;-71
2024/01/11 08:02:18;;;;;;;15.90;7.25;;;;;;;-3.03;100.00;101479.62;5607568;31;34287;-71
2024/01/11 08:05:25;;;;;;;42.95;27.65;;;;;;;-2.98;100.00;101477.69;5607936;31;34984;-71
2024/01/11 08:08:29;;;;;;;12.80;4.70;;;;;;;-2.90;100.00;101475.66;5607716;31;34961;-71
2024/01/11 08:11:35;;;;;;;49.88;29.02;;;;;;;-2.85;100.00;101475.50;5607872;31;34942;-70
2024/01/11 08:14:45;;;;;;;41.97;26.23;;;;;;;-2.80;100.00;101466.63;5607582;31;34359;-71
2024/01/11 08:17:48;;;;;;;39.22;25.17;;;;;;;-2.70;100.00;101460.19;5607643;31;34240;-69
2024/01/11 08:20:51;;;;;;;39.50;25.88;;;;;;;-2.60;100.00;101460.69;5606829;31;34244;-71
2024/01/11 08:23:54;;;;;;;5.43;3.47;;;;;;;-2.54;100.00;101454.44;5607414;31;34284;-70
2024/01/11 08:27:00;;;;;;;34.92;23.27;;;;;;;-2.48;100.00;101449.84;5607566;31;34272;-70
2024/01/11 08:30:04;;;;;;;34.50;23.20;;;;;;;-2.43;100.00;101450.53;5607416;31;34370;-70
2024/01/11 08:33:07;;;;;;;31.48;21.37;;;;;;;-2.41;100.00;101450.44;5607358;31;34969;-70
2024/01/11 08:36:11;;;;;;;29.30;19.87;;;;;;;-2.31;100.00;101452.62;5607030;31;32838;-70
2024/01/11 08:39:17;;;;;;;27.70;17.90;;;;;;;-2.23;100.00;101442.78;5607407;31;34289;-69
2024/01/11 08:42:20;;;;;;;25.35;17.85;;;;;;;-2.15;100.00;101439.88;5609579;31;34440;-70
2024/01/11 08:45:23;;;;;;;26.67;17.77;;;;;;;-2.10;100.00;101440.56;5609451;31;34273;-70
2024/01/11 08:48:28;;;;;;;27.62;18.27;;;;;;;-2.03;100.00;101425.56;5609507;31;34310;-70
2024/01/11 08:51:32;;;;;;;27.77;17.17;;;;;;;-2.10;100.00;101429.31;5609353;31;34403;-71
2024/01/11 08:54:39;;;;;;;22.42;15.55;;;;;;;-1.95;100.00;101436.47;5609765;31;34302;-69
2024/01/11 08:57:41;;;;;;;22.02;14.75;;;;;;;-1.83;100.00;101447.22;5610172;31;35002;-69
2024/01/11 09:00:44;;;;;;;21.87;13.57;;;;;;;-1.74;100.00;101448.59;5609723;31;35010;-69
2024/01/11 09:03:48;;;;;;;19.95;13.48;;;;;;;-1.60;100.00;101450.63;5609655;31;34693;-69
2024/01/11 09:06:51;;;;;;;20.23;13.25;;;;;;;-1.57;100.00;101434.88;5609715;31;34293;-69
2024/01/11 09:09:55;;;;;;;18.55;13.13;;;;;;;-1.51;100.00;101440.69;5609440;31;34488;-68
2024/01/11 09:12:59;;;;;;;20.42;12.68;;;;;;;-1.54;100.00;101435.59;5609903;31;34334;-69
2024/01/11 09:16:02;;;;;;;21.17;13.38;;;;;;;-1.47;98.50;101437.03;5609547;31;34983;-69
2024/01/11 09:19:05;;;;;;;21.23;12.00;;;;;;;-1.48;98.46;101437.09;5609228;31;35066;-68
2024/01/11 09:22:10;;;;;;;21.05;13.05;;;;;;;-1.37;95.87;101438.34;5609418;31;34523;-69
2024/01/11 09:25:13;;;;;;;19.40;11.85;;;;;;;-1.31;96.82;101438.03;5609565;31;34360;-68
2024/01/11 09:28:16;;;;;;;17.37;11.27;;;;;;;-1.36;92.06;101431.38;5609798;31;34424;-68
2024/01/11 09:31:19;;;;;;;19.42;11.20;;;;;;;-1.21;84.76;101427.25;5609369;31;34308;-68
2024/01/11 09:34:22;;;;;;;17.83;10.27;;;;;;;-1.15;84.23;101400.94;5609341;31;34467;-68
2024/01/11 09:37:25;;;;;;;20.88;11.43;;;;;;;-1.15;81.14;101391.38;5609230;31;34286;-69
2024/01/11 09:40:28;;;;;;;18.65;11.25;;;;;;;-1.10;81.58;101383.34;5609099;31;34267;-69
2024/01/11 09:43:34;;;;;;;17.95;10.80;;;;;;;-1.06;80.19;101371.88;5609237;31;34503;-68
2024/01/11 09:46:37;;;;;;;18.58;9.90;;;;;;;-1.04;78.98;101354.44;5609110;31;34409;-69
2024/01/11 09:49:42;;;;;;;19.25;8.15;;;;;;;-0.87;75.84;101347.50;5609117;31;34311;-68
2024/01/11 09:52:49;;;;;;;11.88;7.43;;;;;;;-0.74;69.08;101353.00;5608607;31;34355;-68
2024/01/11 09:55:55;;;;;;;13.90;7.90;;;;;;;-0.64;66.85;101346.44;5609113;31;34474;-68
2024/01/11 09:58:58;;;;;;;15.80;8.15;;;;;;;-0.61;67.75;101342.84;5609392;31;35129;-68
2024/01/11 10:02:02;;;;;;;14.75;9.30;;;;;;;-0.53;66.91;101351.97;5609137;31;34871;-68
2024/01/11 10:05:06;;;;;;;14.05;9.13;;;;;;;-0.52;68.03;101345.00;5609042;31;34441;-68
2024/01/11 10:08:10;;;;;;;13.73;9.00;;;;;;;-0.56;67.22;101326.06;5608943;31;34268;-68
2024/01/11 10:11:13;;;;;;;14.00;9.63;;;;;;;-0.45;68.18;101320.34;5608035;31;34296;-68
2024/01/11 10:14:16;;;;;;;15.05;10.13;;;;;;;-0.45;67.69;101315.13;5608645;31;34703;-67
2024/01/11 10:17:19;;;;;;;17.73;11.20;;;;;;;-0.44;68.33;101309.81;5608985;31;34401;-68
2024/01/11 10:20:29;;;;;;;15.88;11.18;;;;;;;-0.38;70.47;101297.41;5607805;31;34315;-68
2024/01/11 10:23:34;;;;;;;21.15;11.73;;;;;;;-0.35;71.42;101300.72;5608805;31;35009;-68
2024/01/11 10:26:38;;;;;;;21.73;12.35;;;;;;;-0.34;74.03;101299.81;5609019;31;35064;-68
2024/01/11 10:29:43;;;;;;;19.92;11.75;;;;;;;-0.22;73.53;101298.34;5608977;31;34270;-68
2024/01/11 10:32:47;;;;;;;20.02;13.23;;;;;;;-0.24;74.52;101295.00;5608756;31;35318;-67
2024/01/11 10:35:50;;;;;;;20.50;13.82;;;;;;;-0.18;76.18;101286.84;5608954;31;34940;-67
2024/01/11 10:38:56;;;;;;;23.08;14.93;;;;;;;-0.15;76.92;101289.31;5610129;31;33864;-69
2024/01/11 10:42:07;;;;;;;23.92;14.77;;;;;;;-0.07;78.85;101284.53;5609519;31;34929;-68
2024/01/11 10:45:18;;;;;;;26.67;16.08;;;;;;;-0.12;80.43;101276.94;5595261;31;34440;-70
2024/01/11 10:48:22;;;;;;;27.02;16.77;;;;;;;-0.07;81.08;101277.56;5609202;31;34565;-67
2024/01/11 10:51:28;;;;;;;27.35;16.75;;;;;;;-0.12;82.81;101271.72;5608830;31;35011;-67
2024/01/11 10:54:34;;;;;;;24.95;16.12;;;;;;;-0.12;83.17;101269.12;5608128;31;35138;-69
2024/01/11 10:57:39;;;;;;;28.52;16.77;;;;;;;-0.06;80.59;101252.31;5608736;31;35067;-69
2024/01/11 11:00:45;;;;;;;32.53;17.23;;;;;;;0.02;80.82;101251.91;5609096;31;33925;-68
2024/01/11 11:03:51;;;;;;;26.17;17.80;;;;;;;-0.01;80.94;101226.84;5606720;31;34610;-68
2024/01/11 11:06:58;;;;;;;25.60;16.83;;;;;;;-0.08;81.02;101228.06;5608441;31;34398;-68
2024/01/11 11:10:04;;;;;;;32.35;18.77;;;;;;;-0.05;82.38;101233.97;5608918;31;35040;-67
2024/01/11 11:13:09;;;;;;;30.55;19.35;;;;;;;-0.07;86.74;101233.22;5595188;31;35392;-66
2024/01/11 11:16:15;;;;;;;32.97;20.23;;;;;;;0.08;88.30;101230.72;5608519;31;34432;-68
2024/01/11 11:19:20;;;;;;;35.80;21.52;;;;;;;-0.02;92.42;101227.75;5607638;31;34406;-67
2024/01/11 11:22:27;;;;;;;36.58;22.40;;;;;;;0.04;93.71;101227.44;5608366;31;35090;-68
2024/01/11 11:25:30;;;;;;;35.47;22.77;;;;;;;0.05;100.00;101229.09;5608522;31;34271;-69
2024/01/11 11:28:34;;;;;;;33.63;22.23;;;;;;;0.20;99.95;101228.31;5607421;31;34995;-68
2024/01/11 11:31:42;;;;;;;34.33;22.45;;;;;;;0.31;96.95;101219.91;5608110;31;34634;-67
2024/01/11 11:34:46;;;;;;;32.63;21.50;;;;;;;0.26;98.52;101211.50;5608145;31;35070;-69
2024/01/11 11:37:55;;;;;;;35.88;21.35;;;;;;;0.36;96.53;101197.88;5608191;31;34316;-67
2024/01/11 11:40:59;;;;;;;37.10;21.00;;;;;;;0.29;94.61;101187.84;5607716;31;34249;-67
2024/01/11 11:44:04;;;;;;;33.25;21.35;;;;;;;0.26;95.85;101177.56;5608017;31;34740;-67
2024/01/11 11:47:34;;;;;;;30.92;21.45;;;;;;;0.25;94.60;101186.31;5608115;31;34509;-68
2024/01/11 11:50:37;;;;;;;35.60;23.33;;;;;;;0.25;95.80;101197.59;5606402;31;34387;-68
2024/01/11 11:53:41;;;;;;;38.72;24.48;;;;;;;0.19;99.22;101197.94;5607741;31;34526;-68
2024/01/11 11:56:45;;;;;;;37.08;24.50;;;;;;;0.23;100.00;101183.81;5608750;31;34231;-68
2024/01/11 11:59:51;;;;;;;37.33;24.33;;;;;;;0.22;100.00;101170.84;5608011;31;33954;-68
2024/01/11 12:02:56;;;;;;;39.50;24.90;;;;;;;0.32;100.00;101161.59;5607191;31;34409;-68
2024/01/11 12:06:00;;;;;;;38.88;24.52;;;;;;;0.30;99.37;101166.88;5607789;31;34362;-67
2024/01/11 12:09:03;;;;;;;41.65;23.87;;;;;;;0.25;99.89;101162.81;5608069;31;34328;-68
2024/01/11 12:12:07;;;;;;;38.78;24.87;;;;;;;0.37;97.49;101149.97;5607435;31;34955;-67
2024/01/11 12:15:18;;;;;;;36.47;24.48;;;;;;;0.39;97.27;101148.09;5606764;31;34557;-69
2024/01/11 12:18:22;;;;;;;40.90;24.05;;;;;;;0.64;95.13;101144.12;5607441;31;34400;-69
2024/01/11 12:21:26;;;;;;;34.63;23.27;;;;;;;0.99;90.30;101140.38;5607438;31;35033;-68
2024/01/11 12:24:30;;;;;;;36.72;23.35;;;;;;;1.14;89.46;101144.72;5606781;31;34439;-69
2024/01/11 12:27:33;;;;;;;36.25;23.05;;;;;;;1.11;87.44;101138.84;5607428;31;34499;-69
2024/01/11 12:30:36;;;;;;;38.38;23.67;;;;;;;1.28;85.83;101131.69;5606413;31;34243;-69
2024/01/11 12:33:40;;;;;;;37.90;22.85;;;;;;;1.44;83.44;101134.22;5606809;31;34955;-69
2024/01/11 12:36:45;;;;;;;37.13;23.10;;;;;;;1.61;82.17;101139.28;5606689;31;34277;-70
2024/01/11 12:39:47;;;;;;;36.28;22.10;;;;;;;1.68;80.83;101142.37;5607396;31;34291;-69
2024/01/11 12:42:51;;;;;;;34.40;22.98;;;;;;;1.76;78.55;101142.75;5607591;31;32777;-71
2024/01/11 12:45:54;;;;;;;32.65;22.33;;;;;;;1.70;79.57;101149.19;5606643;31;34347;-69
2024/01/11 12:48:57;;;;;;;38.65;22.05;;;;;;;1.83;76.30;101132.75;5606843;31;34332;-70
2024/01/11 12:52:00;;;;;;;32.55;21.83;;;;;;;1.64;77.01;101136.50;5607215;31;34958;-70
2024/01/11 12:55:04;;;;;;;34.17;22.55;;;;;;;2.18;75.30;101131.41;5606724;31;34497;-69
2024/01/11 12:58:09;;;;;;;34.95;22.35;;;;;;;1.84;76.10;101127.41;5606683;31;34547;-70
2024/01/11 13:01:25;;;;;;;31.80;21.27;;;;;;;1.78;76.16;101119.97;5594491;31;35179;-69
2024/01/11 13:04:28;;;;;;;31.67;20.77;;;;;;;1.45;75.43;101122.00;5606914;31;34506;-69
2024/01/11 13:07:32;;;;;;;32.13;20.00;;;;;;;1.04;76.90;101111.34;5605864;31;34371;-69
2024/01/11 13:10:35;;;;;;;34.35;20.17;;;;;;;1.17;77.09;101105.31;5606582;31;34954;-69
2024/01/11 13:13:41;;;;;;;29.45;18.05;;;;;;;1.15;75.61;101091.53;5606443;31;34381;-69
2024/01/11 13:16:43;;;;;;;27.87;17.33;;;;;;;1.37;73.36;101088.47;5606228;31;34930;-68
2024/01/11 13:19:46;;;;;;;28.85;16.27;;;;;;;1.28;70.45;101084.63;5606179;31;34963;-70
2024/01/11 13:23:11;;;;;;;22.65;15.57;;;;;;;1.31;68.67;101073.97;5592433;31;34282;-70
2024/01/11 13:26:15;;;;;;;25.05;16.17;;;;;;;1.28;69.05;101074.19;5607341;31;35520;-69
2024/01/11 13:29:17;;;;;;;27.37;16.58;;;;;;;1.44;67.64;101068.88;5608510;31;34685;-70
2024/01/11 13:32:22;;;;;;;29.08;16.02;;;;;;;1.45;67.68;101067.09;5609263;31;34256;-69
2024/01/11 13:35:25;;;;;;;27.55;15.25;;;;;;;1.41;67.20;101069.03;5609203;31;35034;-69
2024/01/11 13:38:28;;;;;;;22.02;15.35;;;;;;;1.35;66.80;101069.44;5609075;31;34443;-69
2024/01/11 13:41:32;;;;;;;25.12;14.52;;;;;;;1.40;66.72;101072.59;5609324;31;34405;-70
2024/01/11 13:44:36;;;;;;;21.52;15.68;;;;;;;1.37;65.55;101058.84;5609312;31;34220;-69
2024/01/11 13:47:39;;;;;;;28.77;16.00;;;;;;;1.23;65.84;101057.09;5609579;31;34244;-69
2024/01/11 13:50:42;;;;;;;23.48;15.02;;;;;;;1.23;66.11;101046.63;5609217;31;34971;-69
2024/01/11 13:53:46;;;;;;;23.87;15.73;;;;;;;1.20;66.48;101034.59;5609637;31;34321;-69